Impacts TAF Board
For situational awareness. Not to be used for flight planning purposes.
IDs:

KANB - Anniston Metro, AL, US

Issued at 0540 UTC 03 Jul 2022
Updated at 0629 UTC 03 Jul 2022
Potential Impact None Slight Moderate High
Time0553Z 03/07Z 03/08Z 03/09Z 03/10Z 03/11Z 03/12Z 03/13Z 03/14Z 03/15Z 03/16Z 03/17Z 03/18Z 03/19Z>>
Type OBS PRVL PRVL PRVL PRVL PRVL PRVL PRVL PRVL PRVL PRVL PRVL PRVL PRVL
VIS 10 >6 >6 >6 >6 >6 >6 >6 >6 >6 >6 >6 >6 >6
CIG -- -- -- -- -- -- -- -- -- -- -- -- -- --
Cover CLR FEW FEW FEW FEW FEW FEW FEW FEW FEW FEW FEW SCT SCT
FltCat VFR VFR VFR VFR VFR VFR VFR VFR VFR VFR VFR VFR VFR VFR
WX -- -- -- -- -- -- -- -- -- -- -- -- VCSH VCSH
WDir 240 250 250 250 250 250 250 250 250 250 250 250 260 260
WSpd 4 4 4 4 4 4 4 4 4 4 4 4 6 6
WGst -- -- -- -- -- -- -- -- -- -- -- -- -- --
WSHgt -- -- -- -- -- -- -- -- -- -- -- -- -- --
WSDir -- -- -- -- -- -- -- -- -- -- -- -- -- --
WSSpd -- -- -- -- -- -- -- -- -- -- -- -- -- --
Raw TAF
KANB 030540Z 0306/0406 25004KT P6SM FEW200
  FM031800 26006KT P6SM VCSH SCT040 SCT150
  PROB30 0320/0324 VRB10G20KT 6SM TSRA BR OVC035CB
  FM040000 VRB03KT P6SM VCSH SCT060 BKN120
  FM040300 00000KT P6SM BKN250


Raw METAR
KANB 030553Z AUTO 24004KT 10SM CLR 24/22 A3004 RMK AO2 SLP163 T02390222 10300 20239 403280211 58005
KANB 030453Z AUTO 25005KT 10SM CLR 24/22 A3005 RMK AO2 SLP164 T02440222
KANB 030353Z AUTO 25005KT 10SM CLR 25/23 A3006 RMK AO2 SLP166 T02500228

METAR Board
Radar Display
Forecast Discussion
For situational awareness. Not to be used for flight planning purposes.